sensor_id;sensor_type;location;lat;lon;timestamp;P1;durP1;ratioP1;P2;durP2;ratioP2
38859;SDS011;24609;48.316;16.174;2022-10-01T00:01:05;9.93;;;6.25;;
38859;SDS011;24609;48.316;16.174;2022-10-01T00:03:32;8.63;;;5.53;;
38859;SDS011;24609;48.316;16.174;2022-10-01T00:06:07;8.32;;;5.95;;
38859;SDS011;24609;48.316;16.174;2022-10-01T00:08:38;11.65;;;7.57;;
38859;SDS011;24609;48.316;16.174;2022-10-01T00:11:09;9.07;;;5.75;;
38859;SDS011;24609;48.316;16.174;2022-10-01T00:13:37;10.20;;;6.32;;
38859;SDS011;24609;48.316;16.174;2022-10-01T00:16:06;8.68;;;6.47;;
38859;SDS011;24609;48.316;16.174;2022-10-01T00:18:37;13.65;;;6.45;;
38859;SDS011;24609;48.316;16.174;2022-10-01T00:21:04;8.93;;;6.00;;
38859;SDS011;24609;48.316;16.174;2022-10-01T00:23:34;11.65;;;7.18;;
38859;SDS011;24609;48.316;16.174;2022-10-01T00:26:07;8.80;;;6.32;;
38859;SDS011;24609;48.316;16.174;2022-10-01T00:28:56;12.65;;;7.35;;
38859;SDS011;24609;48.316;16.174;2022-10-01T00:31:26;12.13;;;7.05;;
38859;SDS011;24609;48.316;16.174;2022-10-01T00:33:56;10.48;;;7.10;;
38859;SDS011;24609;48.316;16.174;2022-10-01T00:36:24;14.55;;;7.63;;
38859;SDS011;24609;48.316;16.174;2022-10-01T00:38:50;11.82;;;7.75;;
38859;SDS011;24609;48.316;16.174;2022-10-01T00:41:17;9.45;;;6.78;;
38859;SDS011;24609;48.316;16.174;2022-10-01T00:43:45;11.30;;;7.35;;
38859;SDS011;24609;48.316;16.174;2022-10-01T00:46:21;13.38;;;7.93;;
38859;SDS011;24609;48.316;16.174;2022-10-01T00:48:58;11.35;;;8.23;;
38859;SDS011;24609;48.316;16.174;2022-10-01T00:51:25;13.23;;;7.20;;
38859;SDS011;24609;48.316;16.174;2022-10-01T00:56:25;13.75;;;7.78;;
38859;SDS011;24609;48.316;16.174;2022-10-01T00:58:51;13.70;;;8.85;;
38859;SDS011;24609;48.316;16.174;2022-10-01T01:01:20;12.43;;;8.30;;
38859;SDS011;24609;48.316;16.174;2022-10-01T01:03:48;9.43;;;5.75;;
38859;SDS011;24609;48.316;16.174;2022-10-01T01:06:14;7.32;;;5.43;;
38859;SDS011;24609;48.316;16.174;2022-10-01T01:08:40;8.98;;;6.03;;
38859;SDS011;24609;48.316;16.174;2022-10-01T01:11:15;10.88;;;6.30;;
38859;SDS011;24609;48.316;16.174;2022-10-01T01:13:58;8.65;;;5.10;;
38859;SDS011;24609;48.316;16.174;2022-10-01T01:16:35;5.88;;;4.57;;
38859;SDS011;24609;48.316;16.174;2022-10-01T01:19:07;10.35;;;6.05;;
38859;SDS011;24609;48.316;16.174;2022-10-01T01:21:44;9.05;;;5.18;;
38859;SDS011;24609;48.316;16.174;2022-10-01T01:29:57;11.52;;;4.95;;
38859;SDS011;24609;48.316;16.174;2022-10-01T01:32:49;10.50;;;6.97;;
38859;SDS011;24609;48.316;16.174;2022-10-01T01:35:23;10.68;;;7.57;;
38859;SDS011;24609;48.316;16.174;2022-10-01T01:37:57;11.68;;;7.07;;
38859;SDS011;24609;48.316;16.174;2022-10-01T01:40:27;10.02;;;6.57;;
38859;SDS011;24609;48.316;16.174;2022-10-01T01:42:55;10.02;;;6.47;;
38859;SDS011;24609;48.316;16.174;2022-10-01T01:45:24;10.18;;;6.40;;
38859;SDS011;24609;48.316;16.174;2022-10-01T01:47:53;9.27;;;6.13;;
38859;SDS011;24609;48.316;16.174;2022-10-01T01:50:21;8.38;;;6.00;;
38859;SDS011;24609;48.316;16.174;2022-10-01T01:52:52;8.38;;;5.63;;
38859;SDS011;24609;48.316;16.174;2022-10-01T01:55:21;8.38;;;5.57;;
38859;SDS011;24609;48.316;16.174;2022-10-01T01:57:48;8.95;;;5.40;;
38859;SDS011;24609;48.316;16.174;2022-10-01T02:00:15;8.07;;;5.53;;
38859;SDS011;24609;48.316;16.174;2022-10-01T02:02:42;8.02;;;5.18;;
38859;SDS011;24609;48.316;16.174;2022-10-01T02:05:14;9.65;;;5.72;;
38859;SDS011;24609;48.316;16.174;2022-10-01T02:21:40;7.25;;;5.57;;
38859;SDS011;24609;48.316;16.174;2022-10-01T02:24:28;9.07;;;5.75;;
38859;SDS011;24609;48.316;16.174;2022-10-01T02:27:01;9.85;;;5.78;;
38859;SDS011;24609;48.316;16.174;2022-10-01T02:29:30;10.75;;;5.28;;
38859;SDS011;24609;48.316;16.174;2022-10-01T02:31:57;9.35;;;5.85;;
38859;SDS011;24609;48.316;16.174;2022-10-01T02:34:25;8.85;;;5.28;;
38859;SDS011;24609;48.316;16.174;2022-10-01T02:39:19;8.00;;;5.70;;
38859;SDS011;24609;48.316;16.174;2022-10-01T02:41:48;9.20;;;6.30;;
38859;SDS011;24609;48.316;16.174;2022-10-01T02:44:22;9.25;;;5.70;;
38859;SDS011;24609;48.316;16.174;2022-10-01T02:49:47;9.45;;;6.15;;
38859;SDS011;24609;48.316;16.174;2022-10-01T02:54:53;10.50;;;6.18;;
38859;SDS011;24609;48.316;16.174;2022-10-01T02:57:28;11.75;;;6.20;;
38859;SDS011;24609;48.316;16.174;2022-10-01T02:59:59;9.07;;;6.10;;
38859;SDS011;24609;48.316;16.174;2022-10-01T03:02:28;11.15;;;6.15;;
38859;SDS011;24609;48.316;16.174;2022-10-01T03:04:55;8.48;;;5.38;;
38859;SDS011;24609;48.316;16.174;2022-10-01T03:07:21;9.10;;;5.95;;
38859;SDS011;24609;48.316;16.174;2022-10-01T03:09:52;11.77;;;5.70;;
38859;SDS011;24609;48.316;16.174;2022-10-01T03:12:17;8.82;;;6.00;;
38859;SDS011;24609;48.316;16.174;2022-10-01T03:14:44;9.10;;;5.97;;
38859;SDS011;24609;48.316;16.174;2022-10-01T03:17:11;8.68;;;6.07;;
38859;SDS011;24609;48.316;16.174;2022-10-01T03:19:37;9.05;;;6.28;;
38859;SDS011;24609;48.316;16.174;2022-10-01T03:22:03;12.27;;;6.45;;
38859;SDS011;24609;48.316;16.174;2022-10-01T03:24:29;7.10;;;4.95;;
38859;SDS011;24609;48.316;16.174;2022-10-01T03:26:55;11.35;;;6.32;;
38859;SDS011;24609;48.316;16.174;2022-10-01T03:29:21;11.02;;;5.40;;
38859;SDS011;24609;48.316;16.174;2022-10-01T03:31:48;8.68;;;5.68;;
38859;SDS011;24609;48.316;16.174;2022-10-01T03:34:13;12.73;;;6.05;;
38859;SDS011;24609;48.316;16.174;2022-10-01T03:36:39;7.00;;;4.70;;
38859;SDS011;24609;48.316;16.174;2022-10-01T03:39:05;12.70;;;5.57;;
38859;SDS011;24609;48.316;16.174;2022-10-01T03:41:30;8.07;;;5.07;;
38859;SDS011;24609;48.316;16.174;2022-10-01T03:43:56;10.32;;;6.20;;
38859;SDS011;24609;48.316;16.174;2022-10-01T03:46:22;9.95;;;4.75;;
38859;SDS011;24609;48.316;16.174;2022-10-01T03:48:47;7.57;;;5.38;;
38859;SDS011;24609;48.316;16.174;2022-10-01T03:51:14;8.05;;;5.90;;
38859;SDS011;24609;48.316;16.174;2022-10-01T03:53:39;10.15;;;6.00;;
38859;SDS011;24609;48.316;16.174;2022-10-01T03:56:05;9.45;;;5.68;;
38859;SDS011;24609;48.316;16.174;2022-10-01T03:58:31;9.15;;;6.22;;
38859;SDS011;24609;48.316;16.174;2022-10-01T04:00:57;7.40;;;5.25;;
38859;SDS011;24609;48.316;16.174;2022-10-01T04:03:24;8.45;;;5.65;;
38859;SDS011;24609;48.316;16.174;2022-10-01T04:05:50;9.40;;;6.20;;
38859;SDS011;24609;48.316;16.174;2022-10-01T04:08:16;9.40;;;6.03;;
38859;SDS011;24609;48.316;16.174;2022-10-01T04:10:41;8.18;;;5.03;;
38859;SDS011;24609;48.316;16.174;2022-10-01T04:13:07;10.68;;;6.68;;
38859;SDS011;24609;48.316;16.174;2022-10-01T04:15:33;9.88;;;6.75;;
38859;SDS011;24609;48.316;16.174;2022-10-01T04:17:59;7.85;;;6.43;;
38859;SDS011;24609;48.316;16.174;2022-10-01T04:20:29;9.85;;;5.75;;
38859;SDS011;24609;48.316;16.174;2022-10-01T04:22:55;10.05;;;6.38;;
38859;SDS011;24609;48.316;16.174;2022-10-01T04:25:21;9.93;;;6.40;;
38859;SDS011;24609;48.316;16.174;2022-10-01T04:27:54;8.75;;;6.40;;
38859;SDS011;24609;48.316;16.174;2022-10-01T04:30:22;11.05;;;5.68;;
38859;SDS011;24609;48.316;16.174;2022-10-01T04:32:49;9.88;;;5.88;;
38859;SDS011;24609;48.316;16.174;2022-10-01T04:35:14;8.57;;;5.25;;
38859;SDS011;24609;48.316;16.174;2022-10-01T04:37:40;7.60;;;5.63;;
38859;SDS011;24609;48.316;16.174;2022-10-01T04:40:06;10.90;;;5.55;;
38859;SDS011;24609;48.316;16.174;2022-10-01T04:42:32;10.90;;;6.22;;
38859;SDS011;24609;48.316;16.174;2022-10-01T04:44:57;10.15;;;6.43;;
38859;SDS011;24609;48.316;16.174;2022-10-01T04:47:23;10.10;;;6.97;;
38859;SDS011;24609;48.316;16.174;2022-10-01T04:49:49;10.20;;;6.75;;
38859;SDS011;24609;48.316;16.174;2022-10-01T04:52:14;12.18;;;7.13;;
38859;SDS011;24609;48.316;16.174;2022-10-01T04:54:40;9.13;;;6.55;;
38859;SDS011;24609;48.316;16.174;2022-10-01T04:57:05;8.07;;;5.47;;
38859;SDS011;24609;48.316;16.174;2022-10-01T04:59:31;9.00;;;6.03;;
38859;SDS011;24609;48.316;16.174;2022-10-01T05:01:57;9.00;;;5.20;;
38859;SDS011;24609;48.316;16.174;2022-10-01T05:04:23;7.80;;;5.47;;
38859;SDS011;24609;48.316;16.174;2022-10-01T05:06:48;9.73;;;6.13;;
38859;SDS011;24609;48.316;16.174;2022-10-01T05:09:14;8.45;;;5.95;;
38859;SDS011;24609;48.316;16.174;2022-10-01T05:11:40;11.20;;;6.38;;
38859;SDS011;24609;48.316;16.174;2022-10-01T05:14:06;9.77;;;6.05;;
38859;SDS011;24609;48.316;16.174;2022-10-01T05:16:31;11.07;;;6.00;;
38859;SDS011;24609;48.316;16.174;2022-10-01T05:18:57;10.40;;;6.50;;
38859;SDS011;24609;48.316;16.174;2022-10-01T05:21:23;9.60;;;6.20;;
38859;SDS011;24609;48.316;16.174;2022-10-01T05:23:48;7.13;;;4.78;;
38859;SDS011;24609;48.316;16.174;2022-10-01T05:26:14;11.43;;;5.60;;
38859;SDS011;24609;48.316;16.174;2022-10-01T05:28:40;8.32;;;5.65;;
38859;SDS011;24609;48.316;16.174;2022-10-01T05:31:08;9.68;;;6.32;;
38859;SDS011;24609;48.316;16.174;2022-10-01T05:33:35;10.07;;;5.72;;
38859;SDS011;24609;48.316;16.174;2022-10-01T05:36:02;6.45;;;4.82;;
38859;SDS011;24609;48.316;16.174;2022-10-01T05:38:30;8.95;;;5.28;;
38859;SDS011;24609;48.316;16.174;2022-10-01T05:41:00;7.47;;;4.75;;
38859;SDS011;24609;48.316;16.174;2022-10-01T05:43:25;14.50;;;6.70;;
38859;SDS011;24609;48.316;16.174;2022-10-01T05:45:51;9.77;;;6.13;;
38859;SDS011;24609;48.316;16.174;2022-10-01T05:48:17;11.07;;;5.97;;
38859;SDS011;24609;48.316;16.174;2022-10-01T05:50:43;7.32;;;4.90;;
38859;SDS011;24609;48.316;16.174;2022-10-01T05:53:09;7.85;;;4.93;;
38859;SDS011;24609;48.316;16.174;2022-10-01T05:55:35;11.85;;;6.18;;
38859;SDS011;24609;48.316;16.174;2022-10-01T05:58:05;9.73;;;5.82;;
38859;SDS011;24609;48.316;16.174;2022-10-01T06:00:34;9.18;;;6.15;;
38859;SDS011;24609;48.316;16.174;2022-10-01T06:03:01;10.73;;;6.53;;
38859;SDS011;24609;48.316;16.174;2022-10-01T06:05:28;8.60;;;5.85;;
38859;SDS011;24609;48.316;16.174;2022-10-01T06:07:55;6.63;;;4.47;;
38859;SDS011;24609;48.316;16.174;2022-10-01T06:10:21;11.38;;;6.13;;
38859;SDS011;24609;48.316;16.174;2022-10-01T06:12:47;8.90;;;6.13;;
38859;SDS011;24609;48.316;16.174;2022-10-01T06:15:13;12.20;;;6.00;;
38859;SDS011;24609;48.316;16.174;2022-10-01T06:17:40;10.82;;;5.47;;
38859;SDS011;24609;48.316;16.174;2022-10-01T06:20:12;10.15;;;6.05;;
38859;SDS011;24609;48.316;16.174;2022-10-01T06:22:41;11.30;;;5.78;;
38859;SDS011;24609;48.316;16.174;2022-10-01T06:25:09;10.02;;;6.28;;
38859;SDS011;24609;48.316;16.174;2022-10-01T06:27:35;9.45;;;6.20;;
38859;SDS011;24609;48.316;16.174;2022-10-01T06:30:01;9.93;;;5.93;;
38859;SDS011;24609;48.316;16.174;2022-10-01T06:32:27;9.10;;;5.82;;
38859;SDS011;24609;48.316;16.174;2022-10-01T06:34:53;10.35;;;6.13;;
38859;SDS011;24609;48.316;16.174;2022-10-01T06:37:18;10.30;;;6.28;;
38859;SDS011;24609;48.316;16.174;2022-10-01T06:39:44;11.57;;;5.70;;
38859;SDS011;24609;48.316;16.174;2022-10-01T06:42:10;7.53;;;5.65;;
38859;SDS011;24609;48.316;16.174;2022-10-01T06:44:36;8.48;;;5.78;;
38859;SDS011;24609;48.316;16.174;2022-10-01T06:47:01;7.68;;;5.20;;
38859;SDS011;24609;48.316;16.174;2022-10-01T06:49:27;8.18;;;4.70;;
38859;SDS011;24609;48.316;16.174;2022-10-01T06:51:52;7.38;;;4.82;;
38859;SDS011;24609;48.316;16.174;2022-10-01T06:54:37;8.40;;;4.35;;
38859;SDS011;24609;48.316;16.174;2022-10-01T06:57:02;8.68;;;5.57;;
38859;SDS011;24609;48.316;16.174;2022-10-01T06:59:28;7.45;;;4.53;;
38859;SDS011;24609;48.316;16.174;2022-10-01T07:01:53;9.20;;;5.78;;
38859;SDS011;24609;48.316;16.174;2022-10-01T07:04:19;7.53;;;5.22;;
38859;SDS011;24609;48.316;16.174;2022-10-01T07:06:45;7.55;;;5.43;;
38859;SDS011;24609;48.316;16.174;2022-10-01T07:09:10;8.77;;;5.35;;
38859;SDS011;24609;48.316;16.174;2022-10-01T07:11:36;8.20;;;5.50;;
38859;SDS011;24609;48.316;16.174;2022-10-01T07:14:08;7.70;;;4.90;;
38859;SDS011;24609;48.316;16.174;2022-10-01T07:16:36;9.55;;;6.03;;
38859;SDS011;24609;48.316;16.174;2022-10-01T07:19:03;10.25;;;6.15;;
38859;SDS011;24609;48.316;16.174;2022-10-01T07:21:28;8.05;;;6.10;;
38859;SDS011;24609;48.316;16.174;2022-10-01T07:23:54;9.45;;;6.00;;
38859;SDS011;24609;48.316;16.174;2022-10-01T07:26:19;10.48;;;5.68;;
38859;SDS011;24609;48.316;16.174;2022-10-01T07:28:45;9.05;;;5.68;;
38859;SDS011;24609;48.316;16.174;2022-10-01T07:31:11;10.60;;;6.18;;
38859;SDS011;24609;48.316;16.174;2022-10-01T07:33:37;7.78;;;5.72;;
38859;SDS011;24609;48.316;16.174;2022-10-01T07:36:03;8.65;;;5.95;;
38859;SDS011;24609;48.316;16.174;2022-10-01T07:38:30;10.82;;;6.78;;
38859;SDS011;24609;48.316;16.174;2022-10-01T07:40:59;7.35;;;5.35;;
38859;SDS011;24609;48.316;16.174;2022-10-01T07:43:29;9.77;;;5.93;;
38859;SDS011;24609;48.316;16.174;2022-10-01T07:45:56;10.82;;;5.95;;
38859;SDS011;24609;48.316;16.174;2022-10-01T07:48:25;9.40;;;6.07;;
38859;SDS011;24609;48.316;16.174;2022-10-01T07:50:51;8.75;;;5.32;;
38859;SDS011;24609;48.316;16.174;2022-10-01T07:53:17;9.40;;;5.35;;
38859;SDS011;24609;48.316;16.174;2022-10-01T07:55:43;8.68;;;5.60;;
38859;SDS011;24609;48.316;16.174;2022-10-01T07:58:09;8.60;;;5.68;;
38859;SDS011;24609;48.316;16.174;2022-10-01T08:00:38;8.77;;;5.75;;
38859;SDS011;24609;48.316;16.174;2022-10-01T08:03:04;10.07;;;5.75;;
38859;SDS011;24609;48.316;16.174;2022-10-01T08:05:30;7.82;;;5.57;;
38859;SDS011;24609;48.316;16.174;2022-10-01T08:07:58;7.32;;;4.93;;
38859;SDS011;24609;48.316;16.174;2022-10-01T08:10:26;8.13;;;5.50;;
38859;SDS011;24609;48.316;16.174;2022-10-01T08:12:57;8.23;;;5.85;;
38859;SDS011;24609;48.316;16.174;2022-10-01T08:15:25;8.20;;;5.70;;
38859;SDS011;24609;48.316;16.174;2022-10-01T08:17:51;9.10;;;5.43;;
38859;SDS011;24609;48.316;16.174;2022-10-01T08:20:17;8.73;;;6.05;;
38859;SDS011;24609;48.316;16.174;2022-10-01T08:22:43;7.13;;;5.43;;
38859;SDS011;24609;48.316;16.174;2022-10-01T08:25:09;7.40;;;5.15;;
38859;SDS011;24609;48.316;16.174;2022-10-01T08:27:35;8.80;;;6.25;;
38859;SDS011;24609;48.316;16.174;2022-10-01T08:30:01;9.27;;;6.05;;
38859;SDS011;24609;48.316;16.174;2022-10-01T08:32:27;10.10;;;5.72;;
38859;SDS011;24609;48.316;16.174;2022-10-01T08:34:53;6.80;;;5.43;;
38859;SDS011;24609;48.316;16.174;2022-10-01T08:37:27;7.55;;;4.97;;
38859;SDS011;24609;48.316;16.174;2022-10-01T08:39:53;7.88;;;5.18;;
38859;SDS011;24609;48.316;16.174;2022-10-01T08:42:25;9.02;;;4.90;;
38859;SDS011;24609;48.316;16.174;2022-10-01T08:45:00;9.23;;;5.30;;
38859;SDS011;24609;48.316;16.174;2022-10-01T08:47:39;7.65;;;5.20;;
38859;SDS011;24609;48.316;16.174;2022-10-01T08:52:57;8.55;;;5.15;;
38859;SDS011;24609;48.316;16.174;2022-10-01T08:55:27;8.80;;;5.45;;
38859;SDS011;24609;48.316;16.174;2022-10-01T08:58:01;8.10;;;5.18;;
38859;SDS011;24609;48.316;16.174;2022-10-01T09:00:32;8.45;;;5.57;;
38859;SDS011;24609;48.316;16.174;2022-10-01T09:03:03;10.48;;;5.80;;
38859;SDS011;24609;48.316;16.174;2022-10-01T09:05:34;11.15;;;5.95;;
38859;SDS011;24609;48.316;16.174;2022-10-01T09:11:09;8.35;;;5.40;;
38859;SDS011;24609;48.316;16.174;2022-10-01T09:21:35;7.88;;;5.50;;
38859;SDS011;24609;48.316;16.174;2022-10-01T09:24:35;7.43;;;4.85;;
38859;SDS011;24609;48.316;16.174;2022-10-01T09:27:17;5.57;;;4.15;;
38859;SDS011;24609;48.316;16.174;2022-10-01T09:29:48;7.65;;;4.78;;
38859;SDS011;24609;48.316;16.174;2022-10-01T09:32:37;13.43;;;5.25;;
38859;SDS011;24609;48.316;16.174;2022-10-01T09:35:23;7.88;;;5.05;;
38859;SDS011;24609;48.316;16.174;2022-10-01T09:37:59;7.15;;;4.82;;
38859;SDS011;24609;48.316;16.174;2022-10-01T09:43:09;9.52;;;6.20;;
38859;SDS011;24609;48.316;16.174;2022-10-01T09:45:36;6.43;;;4.28;;
38859;SDS011;24609;48.316;16.174;2022-10-01T09:48:03;8.15;;;5.18;;
38859;SDS011;24609;48.316;16.174;2022-10-01T09:50:45;9.07;;;4.90;;
38859;SDS011;24609;48.316;16.174;2022-10-01T09:53:27;5.57;;;4.03;;
38859;SDS011;24609;48.316;16.174;2022-10-01T09:56:19;5.90;;;4.40;;
38859;SDS011;24609;48.316;16.174;2022-10-01T09:58:51;8.00;;;4.25;;
38859;SDS011;24609;48.316;16.174;2022-10-01T10:01:25;6.90;;;4.95;;
38859;SDS011;24609;48.316;16.174;2022-10-01T10:04:00;8.43;;;5.13;;
38859;SDS011;24609;48.316;16.174;2022-10-01T10:06:26;9.05;;;5.45;;
38859;SDS011;24609;48.316;16.174;2022-10-01T10:08:54;8.23;;;5.68;;
38859;SDS011;24609;48.316;16.174;2022-10-01T10:11:23;7.93;;;5.38;;
38859;SDS011;24609;48.316;16.174;2022-10-01T10:13:51;7.63;;;5.25;;
38859;SDS011;24609;48.316;16.174;2022-10-01T10:16:24;8.80;;;5.05;;
38859;SDS011;24609;48.316;16.174;2022-10-01T10:18:53;7.32;;;4.65;;
38859;SDS011;24609;48.316;16.174;2022-10-01T10:21:26;7.28;;;4.30;;
38859;SDS011;24609;48.316;16.174;2022-10-01T10:24:04;5.13;;;3.65;;
38859;SDS011;24609;48.316;16.174;2022-10-01T10:26:50;6.38;;;4.03;;
38859;SDS011;24609;48.316;16.174;2022-10-01T10:29:34;4.70;;;3.53;;
38859;SDS011;24609;48.316;16.174;2022-10-01T10:32:02;4.95;;;3.60;;
38859;SDS011;24609;48.316;16.174;2022-10-01T10:34:34;5.38;;;3.00;;
38859;SDS011;24609;48.316;16.174;2022-10-01T10:37:05;3.80;;;2.80;;
38859;SDS011;24609;48.316;16.174;2022-10-01T10:39:41;5.47;;;3.33;;
38859;SDS011;24609;48.316;16.174;2022-10-01T10:42:13;4.65;;;3.00;;
38859;SDS011;24609;48.316;16.174;2022-10-01T10:47:08;3.17;;;2.67;;
38859;SDS011;24609;48.316;16.174;2022-10-01T10:49:42;5.07;;;2.88;;
38859;SDS011;24609;48.316;16.174;2022-10-01T10:55:00;4.35;;;2.95;;
38859;SDS011;24609;48.316;16.174;2022-10-01T10:57:44;4.35;;;2.88;;
38859;SDS011;24609;48.316;16.174;2022-10-01T11:00:18;5.53;;;3.08;;
38859;SDS011;24609;48.316;16.174;2022-10-01T11:02:55;4.18;;;2.85;;
38859;SDS011;24609;48.316;16.174;2022-10-01T11:05:31;3.55;;;2.63;;
38859;SDS011;24609;48.316;16.174;2022-10-01T11:08:04;4.45;;;3.38;;
38859;SDS011;24609;48.316;16.174;2022-10-01T11:11:15;7.00;;;4.00;;
38859;SDS011;24609;48.316;16.174;2022-10-01T11:27:36;4.25;;;2.80;;
38859;SDS011;24609;48.316;16.174;2022-10-01T11:30:24;4.35;;;2.85;;
38859;SDS011;24609;48.316;16.174;2022-10-01T11:35:58;3.83;;;2.53;;
38859;SDS011;24609;48.316;16.174;2022-10-01T11:41:28;4.82;;;2.88;;
38859;SDS011;24609;48.316;16.174;2022-10-01T11:49:17;3.53;;;2.90;;
38859;SDS011;24609;48.316;16.174;2022-10-01T11:55:10;3.42;;;2.75;;
38859;SDS011;24609;48.316;16.174;2022-10-01T11:58:06;4.03;;;2.90;;
38859;SDS011;24609;48.316;16.174;2022-10-01T12:01:13;3.05;;;2.70;;
38859;SDS011;24609;48.316;16.174;2022-10-01T12:06:25;2.60;;;2.25;;
38859;SDS011;24609;48.316;16.174;2022-10-01T12:09:29;4.25;;;3.00;;
38859;SDS011;24609;48.316;16.174;2022-10-01T12:17:42;8.68;;;2.58;;
38859;SDS011;24609;48.316;16.174;2022-10-01T12:20:22;3.47;;;2.65;;
38859;SDS011;24609;48.316;16.174;2022-10-01T12:22:53;3.58;;;2.53;;
38859;SDS011;24609;48.316;16.174;2022-10-01T12:25:20;4.18;;;3.25;;
38859;SDS011;24609;48.316;16.174;2022-10-01T12:28:41;4.03;;;2.70;;
38859;SDS011;24609;48.316;16.174;2022-10-01T12:39:19;3.95;;;2.60;;
38859;SDS011;24609;48.316;16.174;2022-10-01T12:45:21;4.05;;;2.75;;
38859;SDS011;24609;48.316;16.174;2022-10-01T12:53:03;4.75;;;3.10;;
38859;SDS011;24609;48.316;16.174;2022-10-01T12:58:47;4.35;;;2.20;;
38859;SDS011;24609;48.316;16.174;2022-10-01T13:01:38;2.80;;;2.30;;
38859;SDS011;24609;48.316;16.174;2022-10-01T13:13:21;4.18;;;2.53;;
38859;SDS011;24609;48.316;16.174;2022-10-01T13:16:10;4.07;;;2.30;;
38859;SDS011;24609;48.316;16.174;2022-10-01T13:24:30;3.25;;;2.20;;
38859;SDS011;24609;48.316;16.174;2022-10-01T13:29:29;2.40;;;2.10;;
38859;SDS011;24609;48.316;16.174;2022-10-01T13:32:02;2.70;;;2.00;;
38859;SDS011;24609;48.316;16.174;2022-10-01T13:34:50;3.22;;;2.15;;
38859;SDS011;24609;48.316;16.174;2022-10-01T13:37:16;4.07;;;2.47;;
38859;SDS011;24609;48.316;16.174;2022-10-01T13:40:04;3.95;;;2.47;;
38859;SDS011;24609;48.316;16.174;2022-10-01T13:42:54;3.10;;;2.20;;
38859;SDS011;24609;48.316;16.174;2022-10-01T13:45:48;3.80;;;2.40;;
38859;SDS011;24609;48.316;16.174;2022-10-01T13:48:22;3.38;;;2.03;;
38859;SDS011;24609;48.316;16.174;2022-10-01T13:53:55;3.55;;;2.28;;
38859;SDS011;24609;48.316;16.174;2022-10-01T13:56:26;3.75;;;2.67;;
38859;SDS011;24609;48.316;16.174;2022-10-01T13:58:52;3.20;;;2.38;;
38859;SDS011;24609;48.316;16.174;2022-10-01T14:03:51;2.55;;;2.20;;
38859;SDS011;24609;48.316;16.174;2022-10-01T14:06:23;3.55;;;2.63;;
38859;SDS011;24609;48.316;16.174;2022-10-01T14:09:12;3.42;;;2.65;;
38859;SDS011;24609;48.316;16.174;2022-10-01T14:18:06;3.15;;;2.60;;
38859;SDS011;24609;48.316;16.174;2022-10-01T14:21:00;2.97;;;2.55;;
38859;SDS011;24609;48.316;16.174;2022-10-01T14:26:41;3.53;;;2.45;;
38859;SDS011;24609;48.316;16.174;2022-10-01T14:29:18;3.45;;;2.65;;
38859;SDS011;24609;48.316;16.174;2022-10-01T14:37:28;6.00;;;2.70;;
38859;SDS011;24609;48.316;16.174;2022-10-01T14:40:30;3.13;;;2.83;;
38859;SDS011;24609;48.316;16.174;2022-10-01T14:43:00;3.33;;;2.75;;
38859;SDS011;24609;48.316;16.174;2022-10-01T14:45:34;5.97;;;2.70;;
38859;SDS011;24609;48.316;16.174;2022-10-01T14:48:01;3.78;;;3.03;;
38859;SDS011;24609;48.316;16.174;2022-10-01T14:50:28;4.95;;;3.30;;
38859;SDS011;24609;48.316;16.174;2022-10-01T14:52:57;3.38;;;2.72;;
38859;SDS011;24609;48.316;16.174;2022-10-01T14:55:23;3.38;;;2.67;;
38859;SDS011;24609;48.316;16.174;2022-10-01T14:57:50;4.13;;;3.20;;
38859;SDS011;24609;48.316;16.174;2022-10-01T15:00:20;4.15;;;3.13;;
38859;SDS011;24609;48.316;16.174;2022-10-01T15:02:51;5.93;;;3.50;;
38859;SDS011;24609;48.316;16.174;2022-10-01T15:07:54;3.72;;;3.22;;
38859;SDS011;24609;48.316;16.174;2022-10-01T15:10:21;6.28;;;4.00;;
38859;SDS011;24609;48.316;16.174;2022-10-01T15:12:50;5.90;;;4.18;;
38859;SDS011;24609;48.316;16.174;2022-10-01T15:15:24;4.97;;;3.88;;
38859;SDS011;24609;48.316;16.174;2022-10-01T15:18:03;4.45;;;3.60;;
38859;SDS011;24609;48.316;16.174;2022-10-01T15:20:29;6.70;;;4.28;;
38859;SDS011;24609;48.316;16.174;2022-10-01T15:22:55;5.28;;;4.30;;
38859;SDS011;24609;48.316;16.174;2022-10-01T15:25:22;6.78;;;4.72;;
38859;SDS011;24609;48.316;16.174;2022-10-01T15:27:52;6.93;;;5.22;;
38859;SDS011;24609;48.316;16.174;2022-10-01T15:30:18;6.85;;;4.93;;
38859;SDS011;24609;48.316;16.174;2022-10-01T15:32:47;6.47;;;4.70;;
38859;SDS011;24609;48.316;16.174;2022-10-01T15:35:17;5.65;;;4.68;;
38859;SDS011;24609;48.316;16.174;2022-10-01T15:37:44;5.68;;;4.68;;
38859;SDS011;24609;48.316;16.174;2022-10-01T15:40:27;7.13;;;4.97;;
38859;SDS011;24609;48.316;16.174;2022-10-01T15:45:33;5.78;;;4.43;;
38859;SDS011;24609;48.316;16.174;2022-10-01T15:47:59;5.50;;;4.43;;
38859;SDS011;24609;48.316;16.174;2022-10-01T15:50:26;5.50;;;4.60;;
38859;SDS011;24609;48.316;16.174;2022-10-01T16:05:50;7.03;;;4.65;;
38859;SDS011;24609;48.316;16.174;2022-10-01T16:08:21;5.95;;;4.00;;
38859;SDS011;24609;48.316;16.174;2022-10-01T16:13:37;4.68;;;3.65;;
38859;SDS011;24609;48.316;16.174;2022-10-01T16:18:58;4.35;;;3.60;;
38859;SDS011;24609;48.316;16.174;2022-10-01T16:24:55;5.60;;;4.18;;
38859;SDS011;24609;48.316;16.174;2022-10-01T16:27:23;5.38;;;3.58;;
38859;SDS011;24609;48.316;16.174;2022-10-01T16:29:59;5.97;;;4.07;;
38859;SDS011;24609;48.316;16.174;2022-10-01T16:32:33;6.18;;;3.78;;
38859;SDS011;24609;48.316;16.174;2022-10-01T16:37:44;5.78;;;3.63;;
38859;SDS011;24609;48.316;16.174;2022-10-01T16:40:12;3.78;;;3.00;;
38859;SDS011;24609;48.316;16.174;2022-10-01T16:42:38;4.05;;;2.78;;
38859;SDS011;24609;48.316;16.174;2022-10-01T16:45:04;4.45;;;2.85;;
38859;SDS011;24609;48.316;16.174;2022-10-01T16:47:31;4.40;;;2.50;;
38859;SDS011;24609;48.316;16.174;2022-10-01T16:49:57;3.13;;;2.53;;
38859;SDS011;24609;48.316;16.174;2022-10-01T16:52:23;6.38;;;2.88;;
38859;SDS011;24609;48.316;16.174;2022-10-01T16:54:48;3.20;;;2.42;;
38859;SDS011;24609;48.316;16.174;2022-10-01T16:57:14;2.55;;;2.33;;
38859;SDS011;24609;48.316;16.174;2022-10-01T16:59:43;2.80;;;1.95;;
38859;SDS011;24609;48.316;16.174;2022-10-01T17:02:12;4.15;;;2.30;;
38859;SDS011;24609;48.316;16.174;2022-10-01T17:04:38;2.83;;;2.20;;
38859;SDS011;24609;48.316;16.174;2022-10-01T17:07:04;3.42;;;2.53;;
38859;SDS011;24609;48.316;16.174;2022-10-01T17:09:30;4.05;;;2.50;;
38859;SDS011;24609;48.316;16.174;2022-10-01T17:11:56;2.67;;;2.00;;
38859;SDS011;24609;48.316;16.174;2022-10-01T17:14:22;3.50;;;2.63;;
38859;SDS011;24609;48.316;16.174;2022-10-01T17:16:48;3.00;;;2.10;;
38859;SDS011;24609;48.316;16.174;2022-10-01T17:19:15;4.20;;;2.28;;
38859;SDS011;24609;48.316;16.174;2022-10-01T17:21:41;2.90;;;2.10;;
38859;SDS011;24609;48.316;16.174;2022-10-01T17:24:07;4.00;;;2.25;;
38859;SDS011;24609;48.316;16.174;2022-10-01T17:26:35;3.70;;;2.45;;
38859;SDS011;24609;48.316;16.174;2022-10-01T17:29:02;2.72;;;2.25;;
38859;SDS011;24609;48.316;16.174;2022-10-01T17:31:29;4.40;;;2.45;;
38859;SDS011;24609;48.316;16.174;2022-10-01T17:33:55;5.07;;;2.70;;
38859;SDS011;24609;48.316;16.174;2022-10-01T17:36:21;4.20;;;2.38;;
38859;SDS011;24609;48.316;16.174;2022-10-01T17:38:47;3.40;;;2.35;;
38859;SDS011;24609;48.316;16.174;2022-10-01T17:41:12;3.95;;;2.83;;
38859;SDS011;24609;48.316;16.174;2022-10-01T17:43:38;5.85;;;3.28;;
38859;SDS011;24609;48.316;16.174;2022-10-01T17:46:05;4.05;;;3.05;;